sensor_id;sensor_type;location;lat;lon;timestamp;P1;durP1;ratioP1;P2;durP2;ratioP2
75537;SDS011;64121;48.666;8.114;2023-04-24T00:02:23;1.45;;;0.57;;
75537;SDS011;64121;48.666;8.114;2023-04-24T00:04:50;1.10;;;0.50;;
75537;SDS011;64121;48.666;8.114;2023-04-24T00:07:15;1.38;;;0.50;;
75537;SDS011;64121;48.666;8.114;2023-04-24T00:09:41;1.55;;;0.60;;
75537;SDS011;64121;48.666;8.114;2023-04-24T00:12:06;1.38;;;0.50;;
75537;SDS011;64121;48.666;8.114;2023-04-24T00:14:31;1.67;;;0.55;;
75537;SDS011;64121;48.666;8.114;2023-04-24T00:16:57;1.77;;;0.93;;
75537;SDS011;64121;48.666;8.114;2023-04-24T00:19:22;2.53;;;0.50;;
75537;SDS011;64121;48.666;8.114;2023-04-24T00:21:49;1.67;;;0.68;;
75537;SDS011;64121;48.666;8.114;2023-04-24T00:24:14;0.98;;;0.40;;
75537;SDS011;64121;48.666;8.114;2023-04-24T00:26:39;2.28;;;0.60;;
75537;SDS011;64121;48.666;8.114;2023-04-24T00:29:05;1.40;;;0.70;;
75537;SDS011;64121;48.666;8.114;2023-04-24T00:31:30;1.70;;;0.80;;
75537;SDS011;64121;48.666;8.114;2023-04-24T00:33:55;3.75;;;0.70;;
75537;SDS011;64121;48.666;8.114;2023-04-24T00:36:21;0.95;;;0.50;;
75537;SDS011;64121;48.666;8.114;2023-04-24T00:38:47;2.05;;;0.70;;
75537;SDS011;64121;48.666;8.114;2023-04-24T00:41:13;0.77;;;0.50;;
75537;SDS011;64121;48.666;8.114;2023-04-24T00:43:38;1.23;;;0.57;;
75537;SDS011;64121;48.666;8.114;2023-04-24T00:46:04;1.77;;;0.70;;
75537;SDS011;64121;48.666;8.114;2023-04-24T00:48:29;1.38;;;0.70;;
75537;SDS011;64121;48.666;8.114;2023-04-24T00:50:56;1.25;;;0.80;;
75537;SDS011;64121;48.666;8.114;2023-04-24T00:53:21;0.95;;;0.57;;
75537;SDS011;64121;48.666;8.114;2023-04-24T00:55:48;1.23;;;0.70;;
75537;SDS011;64121;48.666;8.114;2023-04-24T00:58:13;1.38;;;0.70;;
75537;SDS011;64121;48.666;8.114;2023-04-24T01:00:39;1.35;;;0.70;;
75537;SDS011;64121;48.666;8.114;2023-04-24T01:03:04;1.67;;;0.90;;
75537;SDS011;64121;48.666;8.114;2023-04-24T01:05:30;1.75;;;0.82;;
75537;SDS011;64121;48.666;8.114;2023-04-24T01:07:56;2.00;;;0.60;;
75537;SDS011;64121;48.666;8.114;2023-04-24T01:10:23;1.63;;;0.93;;
75537;SDS011;64121;48.666;8.114;2023-04-24T01:12:51;1.25;;;0.63;;
75537;SDS011;64121;48.666;8.114;2023-04-24T01:15:17;1.55;;;0.75;;
75537;SDS011;64121;48.666;8.114;2023-04-24T01:17:43;2.33;;;0.60;;
75537;SDS011;64121;48.666;8.114;2023-04-24T01:20:08;1.45;;;0.80;;
75537;SDS011;64121;48.666;8.114;2023-04-24T01:22:36;1.55;;;0.60;;
75537;SDS011;64121;48.666;8.114;2023-04-24T01:25:01;2.92;;;0.60;;
75537;SDS011;64121;48.666;8.114;2023-04-24T01:27:27;1.58;;;0.70;;
75537;SDS011;64121;48.666;8.114;2023-04-24T01:29:53;1.65;;;0.60;;
75537;SDS011;64121;48.666;8.114;2023-04-24T01:32:19;2.78;;;0.70;;
75537;SDS011;64121;48.666;8.114;2023-04-24T01:34:45;3.63;;;0.70;;
75537;SDS011;64121;48.666;8.114;2023-04-24T01:37:11;3.38;;;0.80;;
75537;SDS011;64121;48.666;8.114;2023-04-24T01:39:38;2.10;;;0.80;;
75537;SDS011;64121;48.666;8.114;2023-04-24T01:42:04;1.83;;;0.77;;
75537;SDS011;64121;48.666;8.114;2023-04-24T01:44:29;4.88;;;1.13;;
75537;SDS011;64121;48.666;8.114;2023-04-24T01:46:55;1.35;;;0.77;;
75537;SDS011;64121;48.666;8.114;2023-04-24T01:49:21;1.33;;;0.70;;
75537;SDS011;64121;48.666;8.114;2023-04-24T01:51:46;2.08;;;0.75;;
75537;SDS011;64121;48.666;8.114;2023-04-24T01:54:11;1.83;;;0.75;;
75537;SDS011;64121;48.666;8.114;2023-04-24T01:56:39;0.98;;;0.70;;
75537;SDS011;64121;48.666;8.114;2023-04-24T01:59:06;1.30;;;0.73;;
75537;SDS011;64121;48.666;8.114;2023-04-24T02:01:34;1.55;;;0.80;;
75537;SDS011;64121;48.666;8.114;2023-04-24T02:03:59;1.80;;;0.70;;
75537;SDS011;64121;48.666;8.114;2023-04-24T02:06:25;1.30;;;0.80;;
75537;SDS011;64121;48.666;8.114;2023-04-24T02:08:50;1.88;;;0.70;;
75537;SDS011;64121;48.666;8.114;2023-04-24T02:11:15;1.30;;;0.70;;
75537;SDS011;64121;48.666;8.114;2023-04-24T02:13:42;2.30;;;0.73;;
75537;SDS011;64121;48.666;8.114;2023-04-24T02:16:07;2.85;;;0.90;;
75537;SDS011;64121;48.666;8.114;2023-04-24T02:18:33;1.42;;;0.60;;
75537;SDS011;64121;48.666;8.114;2023-04-24T02:20:58;0.93;;;0.70;;
75537;SDS011;64121;48.666;8.114;2023-04-24T02:23:23;2.20;;;0.80;;
75537;SDS011;64121;48.666;8.114;2023-04-24T02:25:49;1.02;;;0.70;;
75537;SDS011;64121;48.666;8.114;2023-04-24T02:28:14;1.15;;;0.60;;
75537;SDS011;64121;48.666;8.114;2023-04-24T02:30:41;1.02;;;0.60;;
75537;SDS011;64121;48.666;8.114;2023-04-24T02:33:06;2.47;;;1.02;;
75537;SDS011;64121;48.666;8.114;2023-04-24T02:35:31;1.55;;;0.60;;
75537;SDS011;64121;48.666;8.114;2023-04-24T02:37:57;1.48;;;0.80;;
75537;SDS011;64121;48.666;8.114;2023-04-24T02:40:22;1.88;;;0.70;;
75537;SDS011;64121;48.666;8.114;2023-04-24T02:42:47;1.95;;;0.85;;
75537;SDS011;64121;48.666;8.114;2023-04-24T02:45:13;4.63;;;1.00;;
75537;SDS011;64121;48.666;8.114;2023-04-24T02:47:39;3.45;;;0.60;;
75537;SDS011;64121;48.666;8.114;2023-04-24T02:50:05;1.45;;;1.00;;
75537;SDS011;64121;48.666;8.114;2023-04-24T02:52:32;1.02;;;0.75;;
75537;SDS011;64121;48.666;8.114;2023-04-24T02:54:57;1.50;;;0.68;;
75537;SDS011;64121;48.666;8.114;2023-04-24T02:57:22;1.08;;;0.60;;
75537;SDS011;64121;48.666;8.114;2023-04-24T02:59:48;2.25;;;0.80;;
75537;SDS011;64121;48.666;8.114;2023-04-24T03:02:13;1.10;;;0.70;;
75537;SDS011;64121;48.666;8.114;2023-04-24T03:04:40;1.55;;;0.60;;
75537;SDS011;64121;48.666;8.114;2023-04-24T03:07:05;2.17;;;1.00;;
75537;SDS011;64121;48.666;8.114;2023-04-24T03:09:30;1.40;;;0.80;;
75537;SDS011;64121;48.666;8.114;2023-04-24T03:11:56;2.05;;;0.80;;
75537;SDS011;64121;48.666;8.114;2023-04-24T03:14:21;1.92;;;0.75;;
75537;SDS011;64121;48.666;8.114;2023-04-24T03:16:46;1.67;;;0.82;;
75537;SDS011;64121;48.666;8.114;2023-04-24T03:19:12;3.58;;;1.20;;
75537;SDS011;64121;48.666;8.114;2023-04-24T03:21:38;2.42;;;1.00;;
75537;SDS011;64121;48.666;8.114;2023-04-24T03:24:04;3.92;;;1.00;;
75537;SDS011;64121;48.666;8.114;2023-04-24T03:26:29;1.23;;;0.60;;
75537;SDS011;64121;48.666;8.114;2023-04-24T03:28:55;1.20;;;0.80;;
75537;SDS011;64121;48.666;8.114;2023-04-24T03:31:20;2.90;;;0.93;;
75537;SDS011;64121;48.666;8.114;2023-04-24T03:33:45;4.20;;;1.20;;
75537;SDS011;64121;48.666;8.114;2023-04-24T03:36:11;2.13;;;1.10;;
75537;SDS011;64121;48.666;8.114;2023-04-24T03:38:37;1.80;;;1.02;;
75537;SDS011;64121;48.666;8.114;2023-04-24T03:41:03;2.22;;;2.00;;
75537;SDS011;64121;48.666;8.114;2023-04-24T03:43:28;1.92;;;1.10;;
75537;SDS011;64121;48.666;8.114;2023-04-24T03:45:53;3.50;;;1.10;;
75537;SDS011;64121;48.666;8.114;2023-04-24T03:48:19;2.67;;;1.58;;
75537;SDS011;64121;48.666;8.114;2023-04-24T03:50:44;4.57;;;1.45;;
75537;SDS011;64121;48.666;8.114;2023-04-24T03:53:09;2.90;;;1.50;;
75537;SDS011;64121;48.666;8.114;2023-04-24T03:55:36;2.13;;;1.30;;
75537;SDS011;64121;48.666;8.114;2023-04-24T03:58:01;2.38;;;1.38;;
75537;SDS011;64121;48.666;8.114;2023-04-24T04:00:27;4.40;;;1.30;;
75537;SDS011;64121;48.666;8.114;2023-04-24T04:02:52;2.80;;;1.30;;
75537;SDS011;64121;48.666;8.114;2023-04-24T04:05:17;2.63;;;1.30;;
75537;SDS011;64121;48.666;8.114;2023-04-24T04:07:43;2.10;;;1.17;;
75537;SDS011;64121;48.666;8.114;2023-04-24T04:10:08;3.25;;;1.30;;
75537;SDS011;64121;48.666;8.114;2023-04-24T04:12:35;3.38;;;1.40;;
75537;SDS011;64121;48.666;8.114;2023-04-24T04:15:00;2.30;;;1.10;;
75537;SDS011;64121;48.666;8.114;2023-04-24T04:17:26;3.58;;;1.30;;
75537;SDS011;64121;48.666;8.114;2023-04-24T04:19:51;2.15;;;1.38;;
75537;SDS011;64121;48.666;8.114;2023-04-24T04:22:16;2.30;;;1.40;;
75537;SDS011;64121;48.666;8.114;2023-04-24T04:24:42;4.20;;;1.30;;
75537;SDS011;64121;48.666;8.114;2023-04-24T04:27:07;2.70;;;1.25;;
75537;SDS011;64121;48.666;8.114;2023-04-24T04:29:34;3.03;;;1.20;;
75537;SDS011;64121;48.666;8.114;2023-04-24T04:31:59;3.00;;;1.40;;
75537;SDS011;64121;48.666;8.114;2023-04-24T04:34:24;2.30;;;1.20;;
75537;SDS011;64121;48.666;8.114;2023-04-24T04:36:50;2.65;;;1.13;;
75537;SDS011;64121;48.666;8.114;2023-04-24T04:39:15;2.53;;;1.30;;
75537;SDS011;64121;48.666;8.114;2023-04-24T04:41:40;3.22;;;1.10;;
75537;SDS011;64121;48.666;8.114;2023-04-24T04:44:06;2.35;;;1.35;;
75537;SDS011;64121;48.666;8.114;2023-04-24T04:46:32;2.80;;;1.13;;
75537;SDS011;64121;48.666;8.114;2023-04-24T04:48:58;3.30;;;1.77;;
75537;SDS011;64121;48.666;8.114;2023-04-24T04:51:24;2.85;;;1.25;;
75537;SDS011;64121;48.666;8.114;2023-04-24T04:53:49;2.83;;;1.30;;
75537;SDS011;64121;48.666;8.114;2023-04-24T04:56:14;2.42;;;1.30;;
75537;SDS011;64121;48.666;8.114;2023-04-24T04:58:40;3.83;;;1.45;;
75537;SDS011;64121;48.666;8.114;2023-04-24T05:01:05;3.03;;;1.17;;
75537;SDS011;64121;48.666;8.114;2023-04-24T05:03:32;2.65;;;1.50;;
75537;SDS011;64121;48.666;8.114;2023-04-24T05:05:57;3.25;;;1.80;;
75537;SDS011;64121;48.666;8.114;2023-04-24T05:08:22;3.05;;;1.67;;
75537;SDS011;64121;48.666;8.114;2023-04-24T05:10:48;2.20;;;1.40;;
75537;SDS011;64121;48.666;8.114;2023-04-24T05:13:13;2.72;;;1.20;;
75537;SDS011;64121;48.666;8.114;2023-04-24T05:15:38;2.08;;;1.30;;
75537;SDS011;64121;48.666;8.114;2023-04-24T05:18:04;3.00;;;1.33;;
75537;SDS011;64121;48.666;8.114;2023-04-24T05:20:30;2.92;;;1.10;;
75537;SDS011;64121;48.666;8.114;2023-04-24T05:22:56;2.50;;;1.38;;
75537;SDS011;64121;48.666;8.114;2023-04-24T05:25:21;2.10;;;1.33;;
75537;SDS011;64121;48.666;8.114;2023-04-24T05:27:46;2.55;;;1.20;;
75537;SDS011;64121;48.666;8.114;2023-04-24T05:30:12;4.20;;;1.38;;
75537;SDS011;64121;48.666;8.114;2023-04-24T05:32:37;3.15;;;1.52;;
75537;SDS011;64121;48.666;8.114;2023-04-24T05:35:03;2.60;;;1.25;;
75537;SDS011;64121;48.666;8.114;2023-04-24T05:37:30;1.90;;;1.27;;
75537;SDS011;64121;48.666;8.114;2023-04-24T05:39:55;3.03;;;1.50;;
75537;SDS011;64121;48.666;8.114;2023-04-24T05:42:21;2.50;;;1.50;;
75537;SDS011;64121;48.666;8.114;2023-04-24T05:44:46;8.13;;;1.73;;
75537;SDS011;64121;48.666;8.114;2023-04-24T05:47:11;3.90;;;1.40;;
75537;SDS011;64121;48.666;8.114;2023-04-24T05:49:36;2.03;;;1.30;;
75537;SDS011;64121;48.666;8.114;2023-04-24T05:52:02;4.68;;;1.70;;
75537;SDS011;64121;48.666;8.114;2023-04-24T05:54:28;2.10;;;1.30;;
75537;SDS011;64121;48.666;8.114;2023-04-24T05:56:54;3.20;;;1.27;;
75537;SDS011;64121;48.666;8.114;2023-04-24T05:59:19;2.10;;;1.25;;
75537;SDS011;64121;48.666;8.114;2023-04-24T06:01:45;4.65;;;1.42;;
75537;SDS011;64121;48.666;8.114;2023-04-24T06:04:10;2.05;;;1.20;;
75537;SDS011;64121;48.666;8.114;2023-04-24T06:06:37;3.42;;;1.50;;
75537;SDS011;64121;48.666;8.114;2023-04-24T06:09:02;3.33;;;1.35;;
75537;SDS011;64121;48.666;8.114;2023-04-24T06:11:29;3.05;;;1.60;;
75537;SDS011;64121;48.666;8.114;2023-04-24T06:13:54;2.42;;;1.60;;
75537;SDS011;64121;48.666;8.114;2023-04-24T06:16:19;3.25;;;1.92;;
75537;SDS011;64121;48.666;8.114;2023-04-24T06:18:45;2.35;;;1.77;;
75537;SDS011;64121;48.666;8.114;2023-04-24T06:21:10;3.75;;;2.83;;
75537;SDS011;64121;48.666;8.114;2023-04-24T06:23:35;4.13;;;1.75;;
75537;SDS011;64121;48.666;8.114;2023-04-24T06:26:01;3.42;;;2.25;;
75537;SDS011;64121;48.666;8.114;2023-04-24T06:28:27;3.15;;;2.00;;
75537;SDS011;64121;48.666;8.114;2023-04-24T06:30:53;2.75;;;1.77;;
75537;SDS011;64121;48.666;8.114;2023-04-24T06:33:18;3.08;;;1.80;;
75537;SDS011;64121;48.666;8.114;2023-04-24T06:35:43;4.60;;;2.03;;
75537;SDS011;64121;48.666;8.114;2023-04-24T06:38:09;3.95;;;2.30;;
75537;SDS011;64121;48.666;8.114;2023-04-24T06:40:34;3.58;;;1.90;;
75537;SDS011;64121;48.666;8.114;2023-04-24T06:42:59;3.33;;;1.98;;
75537;SDS011;64121;48.666;8.114;2023-04-24T06:45:26;4.07;;;2.35;;
75537;SDS011;64121;48.666;8.114;2023-04-24T06:47:51;3.50;;;1.98;;
75537;SDS011;64121;48.666;8.114;2023-04-24T06:50:17;2.40;;;1.80;;
75537;SDS011;64121;48.666;8.114;2023-04-24T06:52:42;3.67;;;2.13;;
75537;SDS011;64121;48.666;8.114;2023-04-24T06:55:08;2.90;;;2.03;;
75537;SDS011;64121;48.666;8.114;2023-04-24T06:57:33;2.70;;;1.90;;
75537;SDS011;64121;48.666;8.114;2023-04-24T06:59:58;2.90;;;2.00;;
75537;SDS011;64121;48.666;8.114;2023-04-24T07:02:25;3.70;;;2.08;;
75537;SDS011;64121;48.666;8.114;2023-04-24T07:04:51;3.03;;;1.80;;
75537;SDS011;64121;48.666;8.114;2023-04-24T07:07:16;2.20;;;1.67;;
75537;SDS011;64121;48.666;8.114;2023-04-24T07:09:41;3.88;;;2.13;;
75537;SDS011;64121;48.666;8.114;2023-04-24T07:12:07;4.05;;;2.05;;
75537;SDS011;64121;48.666;8.114;2023-04-24T07:14:32;3.67;;;2.35;;
75537;SDS011;64121;48.666;8.114;2023-04-24T07:16:58;3.08;;;2.10;;
75537;SDS011;64121;48.666;8.114;2023-04-24T07:19:24;2.65;;;1.77;;
75537;SDS011;64121;48.666;8.114;2023-04-24T07:21:50;4.35;;;2.20;;
75537;SDS011;64121;48.666;8.114;2023-04-24T07:24:15;3.35;;;2.03;;
75537;SDS011;64121;48.666;8.114;2023-04-24T07:26:40;3.00;;;2.00;;
75537;SDS011;64121;48.666;8.114;2023-04-24T07:29:06;4.63;;;1.83;;
75537;SDS011;64121;48.666;8.114;2023-04-24T07:31:32;3.05;;;1.77;;
75537;SDS011;64121;48.666;8.114;2023-04-24T07:33:57;3.28;;;1.67;;
75537;SDS011;64121;48.666;8.114;2023-04-24T07:36:24;2.83;;;1.50;;
75537;SDS011;64121;48.666;8.114;2023-04-24T07:38:49;3.63;;;1.60;;
75537;SDS011;64121;48.666;8.114;2023-04-24T07:41:14;4.28;;;1.80;;
75537;SDS011;64121;48.666;8.114;2023-04-24T07:43:40;4.20;;;1.70;;
75537;SDS011;64121;48.666;8.114;2023-04-24T07:46:05;2.38;;;1.70;;
75537;SDS011;64121;48.666;8.114;2023-04-24T07:48:31;2.47;;;1.50;;
75537;SDS011;64121;48.666;8.114;2023-04-24T07:50:56;2.20;;;1.35;;
75537;SDS011;64121;48.666;8.114;2023-04-24T07:53:23;4.68;;;1.85;;
75537;SDS011;64121;48.666;8.114;2023-04-24T07:55:48;3.00;;;1.80;;
75537;SDS011;64121;48.666;8.114;2023-04-24T07:58:14;3.05;;;1.80;;
75537;SDS011;64121;48.666;8.114;2023-04-24T08:00:39;2.92;;;1.70;;
75537;SDS011;64121;48.666;8.114;2023-04-24T08:03:04;3.08;;;1.90;;
75537;SDS011;64121;48.666;8.114;2023-04-24T08:05:30;4.00;;;2.00;;
75537;SDS011;64121;48.666;8.114;2023-04-24T08:07:55;4.00;;;2.05;;
75537;SDS011;64121;48.666;8.114;2023-04-24T08:10:22;3.60;;;1.67;;
75537;SDS011;64121;48.666;8.114;2023-04-24T08:12:48;2.83;;;1.83;;
75537;SDS011;64121;48.666;8.114;2023-04-24T08:15:13;3.80;;;1.70;;
75537;SDS011;64121;48.666;8.114;2023-04-24T08:17:39;2.38;;;1.40;;
75537;SDS011;64121;48.666;8.114;2023-04-24T08:20:05;2.83;;;1.55;;
75537;SDS011;64121;48.666;8.114;2023-04-24T08:22:31;3.38;;;1.70;;
75537;SDS011;64121;48.666;8.114;2023-04-24T08:24:56;2.50;;;1.23;;
75537;SDS011;64121;48.666;8.114;2023-04-24T08:27:26;2.47;;;1.50;;
75537;SDS011;64121;48.666;8.114;2023-04-24T08:29:52;4.35;;;1.77;;
75537;SDS011;64121;48.666;8.114;2023-04-24T08:32:18;2.38;;;1.40;;
75537;SDS011;64121;48.666;8.114;2023-04-24T08:34:43;2.78;;;1.48;;
75537;SDS011;64121;48.666;8.114;2023-04-24T08:37:08;3.38;;;1.42;;
75537;SDS011;64121;48.666;8.114;2023-04-24T08:39:34;3.17;;;1.40;;
75537;SDS011;64121;48.666;8.114;2023-04-24T08:41:59;2.20;;;1.30;;
75537;SDS011;64121;48.666;8.114;2023-04-24T08:44:26;2.65;;;1.23;;
75537;SDS011;64121;48.666;8.114;2023-04-24T08:46:51;2.70;;;1.70;;
75537;SDS011;64121;48.666;8.114;2023-04-24T08:49:18;5.10;;;1.50;;
75537;SDS011;64121;48.666;8.114;2023-04-24T08:51:44;3.22;;;1.38;;
75537;SDS011;64121;48.666;8.114;2023-04-24T08:54:11;3.75;;;1.33;;
75537;SDS011;64121;48.666;8.114;2023-04-24T08:56:36;3.95;;;1.40;;
75537;SDS011;64121;48.666;8.114;2023-04-24T08:59:02;2.45;;;1.20;;
75537;SDS011;64121;48.666;8.114;2023-04-24T09:01:28;5.60;;;1.40;;
75537;SDS011;64121;48.666;8.114;2023-04-24T09:03:57;2.60;;;1.25;;
75537;SDS011;64121;48.666;8.114;2023-04-24T09:06:22;5.13;;;1.42;;
75537;SDS011;64121;48.666;8.114;2023-04-24T09:08:48;3.05;;;1.38;;
75537;SDS011;64121;48.666;8.114;2023-04-24T09:11:18;2.00;;;1.10;;
75537;SDS011;64121;48.666;8.114;2023-04-24T09:13:43;2.90;;;1.23;;
75537;SDS011;64121;48.666;8.114;2023-04-24T09:16:10;1.92;;;1.20;;
75537;SDS011;64121;48.666;8.114;2023-04-24T09:18:37;3.20;;;1.20;;
75537;SDS011;64121;48.666;8.114;2023-04-24T09:21:03;1.58;;;0.88;;
75537;SDS011;64121;48.666;8.114;2023-04-24T09:23:31;5.53;;;1.30;;
75537;SDS011;64121;48.666;8.114;2023-04-24T09:25:57;2.47;;;1.20;;
75537;SDS011;64121;48.666;8.114;2023-04-24T09:28:29;3.22;;;1.40;;
75537;SDS011;64121;48.666;8.114;2023-04-24T09:31:05;2.47;;;1.05;;
75537;SDS011;64121;48.666;8.114;2023-04-24T09:33:32;2.78;;;1.45;;
75537;SDS011;64121;48.666;8.114;2023-04-24T09:35:59;2.25;;;1.30;;
75537;SDS011;64121;48.666;8.114;2023-04-24T09:38:30;2.40;;;1.25;;
75537;SDS011;64121;48.666;8.114;2023-04-24T09:40:57;3.25;;;1.27;;
75537;SDS011;64121;48.666;8.114;2023-04-24T09:43:25;1.85;;;0.93;;
75537;SDS011;64121;48.666;8.114;2023-04-24T09:45:53;2.22;;;1.23;;
75537;SDS011;64121;48.666;8.114;2023-04-24T09:48:21;2.28;;;1.00;;
75537;SDS011;64121;48.666;8.114;2023-04-24T09:50:54;3.97;;;1.42;;
75537;SDS011;64121;48.666;8.114;2023-04-24T09:53:24;3.08;;;1.35;;
75537;SDS011;64121;48.666;8.114;2023-04-24T09:55:50;1.80;;;1.10;;
75537;SDS011;64121;48.666;8.114;2023-04-24T09:58:15;2.75;;;1.52;;
75537;SDS011;64121;48.666;8.114;2023-04-24T10:00:41;2.13;;;1.40;;
75537;SDS011;64121;48.666;8.114;2023-04-24T10:03:06;4.03;;;1.55;;
75537;SDS011;64121;48.666;8.114;2023-04-24T10:05:32;2.13;;;1.13;;
75537;SDS011;64121;48.666;8.114;2023-04-24T10:08:00;3.60;;;1.35;;
75537;SDS011;64121;48.666;8.114;2023-04-24T10:10:28;1.77;;;1.00;;
75537;SDS011;64121;48.666;8.114;2023-04-24T10:12:53;2.40;;;1.10;;
75537;SDS011;64121;48.666;8.114;2023-04-24T10:15:19;1.65;;;1.08;;
75537;SDS011;64121;48.666;8.114;2023-04-24T10:17:45;2.05;;;1.13;;
75537;SDS011;64121;48.666;8.114;2023-04-24T10:20:12;3.42;;;1.25;;
75537;SDS011;64121;48.666;8.114;2023-04-24T10:22:37;2.13;;;1.48;;
75537;SDS011;64121;48.666;8.114;2023-04-24T10:25:03;1.90;;;1.15;;
75537;SDS011;64121;48.666;8.114;2023-04-24T10:27:31;2.75;;;1.23;;
75537;SDS011;64121;48.666;8.114;2023-04-24T10:29:57;2.10;;;1.15;;
75537;SDS011;64121;48.666;8.114;2023-04-24T10:32:23;2.67;;;1.00;;
75537;SDS011;64121;48.666;8.114;2023-04-24T10:34:48;2.45;;;1.05;;
75537;SDS011;64121;48.666;8.114;2023-04-24T10:37:14;1.80;;;1.02;;
75537;SDS011;64121;48.666;8.114;2023-04-24T10:39:40;1.95;;;1.27;;
75537;SDS011;64121;48.666;8.114;2023-04-24T10:42:13;2.08;;;1.20;;
75537;SDS011;64121;48.666;8.114;2023-04-24T10:44:40;2.00;;;0.93;;
75537;SDS011;64121;48.666;8.114;2023-04-24T10:47:06;1.20;;;0.90;;
75537;SDS011;64121;48.666;8.114;2023-04-24T10:49:37;3.50;;;1.40;;
75537;SDS011;64121;48.666;8.114;2023-04-24T10:52:03;1.90;;;1.00;;
75537;SDS011;64121;48.666;8.114;2023-04-24T10:54:33;1.75;;;1.02;;
75537;SDS011;64121;48.666;8.114;2023-04-24T11:00:10;2.10;;;1.33;;
75537;SDS011;64121;48.666;8.114;2023-04-24T11:02:39;2.40;;;1.40;;
75537;SDS011;64121;48.666;8.114;2023-04-24T11:05:05;3.30;;;1.80;;
75537;SDS011;64121;48.666;8.114;2023-04-24T11:07:37;2.45;;;1.40;;
75537;SDS011;64121;48.666;8.114;2023-04-24T11:10:37;1.98;;;1.20;;
75537;SDS011;64121;48.666;8.114;2023-04-24T11:13:03;1.75;;;1.25;;
75537;SDS011;64121;48.666;8.114;2023-04-24T11:15:30;2.58;;;0.95;;
75537;SDS011;64121;48.666;8.114;2023-04-24T11:17:55;1.83;;;1.40;;
75537;SDS011;64121;48.666;8.114;2023-04-24T11:20:22;1.92;;;1.30;;
75537;SDS011;64121;48.666;8.114;2023-04-24T11:22:48;4.15;;;1.58;;
75537;SDS011;64121;48.666;8.114;2023-04-24T11:25:17;5.50;;;1.40;;
75537;SDS011;64121;48.666;8.114;2023-04-24T11:27:44;3.45;;;1.50;;
75537;SDS011;64121;48.666;8.114;2023-04-24T11:30:10;3.65;;;1.60;;
75537;SDS011;64121;48.666;8.114;2023-04-24T11:32:37;2.38;;;1.40;;
75537;SDS011;64121;48.666;8.114;2023-04-24T11:35:04;2.58;;;1.50;;
75537;SDS011;64121;48.666;8.114;2023-04-24T11:37:35;3.13;;;1.60;;
75537;SDS011;64121;48.666;8.114;2023-04-24T11:40:01;2.25;;;1.50;;
75537;SDS011;64121;48.666;8.114;2023-04-24T11:42:27;2.90;;;1.27;;
75537;SDS011;64121;48.666;8.114;2023-04-24T11:44:53;3.30;;;1.52;;
75537;SDS011;64121;48.666;8.114;2023-04-24T11:47:20;4.07;;;1.45;;
75537;SDS011;64121;48.666;8.114;2023-04-24T11:49:46;2.50;;;1.77;;
75537;SDS011;64121;48.666;8.114;2023-04-24T11:52:15;2.55;;;1.50;;
75537;SDS011;64121;48.666;8.114;2023-04-24T11:54:46;3.22;;;1.70;;
75537;SDS011;64121;48.666;8.114;2023-04-24T11:57:12;4.72;;;3.47;;
75537;SDS011;64121;48.666;8.114;2023-04-24T11:59:37;3.95;;;1.73;;
75537;SDS011;64121;48.666;8.114;2023-04-24T12:02:03;3.08;;;1.70;;
75537;SDS011;64121;48.666;8.114;2023-04-24T12:04:37;3.03;;;1.90;;
75537;SDS011;64121;48.666;8.114;2023-04-24T12:07:05;2.40;;;1.60;;
75537;SDS011;64121;48.666;8.114;2023-04-24T12:09:39;4.10;;;1.70;;
75537;SDS011;64121;48.666;8.114;2023-04-24T12:12:06;2.38;;;1.55;;
75537;SDS011;64121;48.666;8.114;2023-04-24T12:14:31;3.58;;;1.98;;
75537;SDS011;64121;48.666;8.114;2023-04-24T12:16:57;4.03;;;1.90;;
75537;SDS011;64121;48.666;8.114;2023-04-24T12:19:22;2.67;;;1.60;;
75537;SDS011;64121;48.666;8.114;2023-04-24T12:21:58;3.28;;;1.88;;
75537;SDS011;64121;48.666;8.114;2023-04-24T12:24:26;3.85;;;1.70;;
75537;SDS011;64121;48.666;8.114;2023-04-24T12:26:52;2.92;;;1.73;;
75537;SDS011;64121;48.666;8.114;2023-04-24T12:29:19;4.65;;;2.08;;
75537;SDS011;64121;48.666;8.114;2023-04-24T12:31:45;4.38;;;1.92;;
75537;SDS011;64121;48.666;8.114;2023-04-24T12:34:17;3.65;;;1.90;;
75537;SDS011;64121;48.666;8.114;2023-04-24T12:36:43;4.63;;;2.60;;
75537;SDS011;64121;48.666;8.114;2023-04-24T12:39:13;5.60;;;2.67;;
75537;SDS011;64121;48.666;8.114;2023-04-24T12:41:48;4.10;;;2.35;;
75537;SDS011;64121;48.666;8.114;2023-04-24T12:44:15;3.28;;;2.03;;
75537;SDS011;64121;48.666;8.114;2023-04-24T12:46:40;3.10;;;2.00;;
75537;SDS011;64121;48.666;8.114;2023-04-24T12:49:06;3.13;;;2.33;;
75537;SDS011;64121;48.666;8.114;2023-04-24T12:51:31;3.08;;;1.98;;
75537;SDS011;64121;48.666;8.114;2023-04-24T12:53:56;3.88;;;2.78;;
75537;SDS011;64121;48.666;8.114;2023-04-24T12:56:22;5.13;;;3.78;;
75537;SDS011;64121;48.666;8.114;2023-04-24T12:58:48;5.60;;;4.05;;
75537;SDS011;64121;48.666;8.114;2023-04-24T13:01:14;4.32;;;3.50;;
75537;SDS011;64121;48.666;8.114;2023-04-24T13:03:39;7.75;;;6.95;;
75537;SDS011;64121;48.666;8.114;2023-04-24T13:06:04;9.65;;;7.70;;
75537;SDS011;64121;48.666;8.114;2023-04-24T13:08:30;3.47;;;2.70;;
75537;SDS011;64121;48.666;8.114;2023-04-24T13:10:55;3.70;;;2.53;;
75537;SDS011;64121;48.666;8.114;2023-04-24T13:13:20;4.97;;;2.47;;
75537;SDS011;64121;48.666;8.114;2023-04-24T13:15:47;4.30;;;3.90;;
75537;SDS011;64121;48.666;8.114;2023-04-24T13:18:12;6.07;;;3.75;;
75537;SDS011;64121;48.666;8.114;2023-04-24T13:20:38;4.60;;;2.50;;
75537;SDS011;64121;48.666;8.114;2023-04-24T13:23:03;2.78;;;2.17;;
75537;SDS011;64121;48.666;8.114;2023-04-24T13:25:30;3.15;;;1.88;;
75537;SDS011;64121;48.666;8.114;2023-04-24T13:27:59;3.08;;;1.83;;
75537;SDS011;64121;48.666;8.114;2023-04-24T13:30:25;4.78;;;1.88;;
75537;SDS011;64121;48.666;8.114;2023-04-24T13:32:51;3.00;;;1.98;;
75537;SDS011;64121;48.666;8.114;2023-04-24T13:35:17;2.45;;;1.85;;
75537;SDS011;64121;48.666;8.114;2023-04-24T13:37:42;2.95;;;1.58;;
75537;SDS011;64121;48.666;8.114;2023-04-24T13:40:08;4.45;;;2.10;;
75537;SDS011;64121;48.666;8.114;2023-04-24T13:42:34;4.07;;;1.88;;
75537;SDS011;64121;48.666;8.114;2023-04-24T13:44:59;3.13;;;2.13;;
75537;SDS011;64121;48.666;8.114;2023-04-24T13:47:25;3.30;;;1.98;;
75537;SDS011;64121;48.666;8.114;2023-04-24T13:49:51;5.00;;;2.25;;
75537;SDS011;64121;48.666;8.114;2023-04-24T13:52:17;4.18;;;1.55;;
75537;SDS011;64121;48.666;8.114;2023-04-24T13:54:42;2.70;;;1.90;;
75537;SDS011;64121;48.666;8.114;2023-04-24T13:57:07;2.65;;;1.42;;
75537;SDS011;64121;48.666;8.114;2023-04-24T13:59:33;2.78;;;1.48;;
75537;SDS011;64121;48.666;8.114;2023-04-24T14:01:58;3.33;;;1.70;;
75537;SDS011;64121;48.666;8.114;2023-04-24T14:04:23;2.17;;;1.40;;
75537;SDS011;64121;48.666;8.114;2023-04-24T14:06:50;2.03;;;1.45;;
75537;SDS011;64121;48.666;8.114;2023-04-24T14:09:15;2.50;;;1.65;;
75537;SDS011;64121;48.666;8.114;2023-04-24T14:11:41;2.72;;;1.58;;
75537;SDS011;64121;48.666;8.114;2023-04-24T14:14:06;2.35;;;1.75;;
75537;SDS011;64121;48.666;8.114;2023-04-24T14:16:31;3.83;;;1.95;;
75537;SDS011;64121;48.666;8.114;2023-04-24T14:18:57;3.42;;;1.88;;
75537;SDS011;64121;48.666;8.114;2023-04-24T14:21:22;3.92;;;2.17;;
75537;SDS011;64121;48.666;8.114;2023-04-24T14:23:49;4.28;;;2.47;;
75537;SDS011;64121;48.666;8.114;2023-04-24T14:26:14;3.72;;;2.00;;
75537;SDS011;64121;48.666;8.114;2023-04-24T14:28:40;2.85;;;2.17;;
75537;SDS011;64121;48.666;8.114;2023-04-24T14:31:05;3.10;;;2.10;;
75537;SDS011;64121;48.666;8.114;2023-04-24T14:33:30;3.28;;;2.10;;
75537;SDS011;64121;48.666;8.114;2023-04-24T14:35:56;4.55;;;2.38;;
75537;SDS011;64121;48.666;8.114;2023-04-24T14:38:22;5.85;;;2.53;;
75537;SDS011;64121;48.666;8.114;2023-04-24T14:40:48;5.70;;;2.40;;
75537;SDS011;64121;48.666;8.114;2023-04-24T14:43:14;3.55;;;2.50;;
75537;SDS011;64121;48.666;8.114;2023-04-24T14:45:39;4.13;;;2.33;;